Time;durP1;ratioP1;P1;durP2;ratioP2;P2;SDS_P1;SDS_P2;PMS_P1;PMS_P2;Temp;Humidity;BMP_temperature;BMP_pressure;BME280_temperature;BME280_humidity;BME280_pressure;Samples;Min_cycle;Max_cycle;Signal;HPM_P1;HPM_P2
2021/11/19 00:00:40;;;;;;;21.23;7.40;;;;;;;;;;6196156;28;20054;-82
2021/11/19 00:03:42;;;;;;;16.52;6.45;;;;;;;;;;6206883;28;20050;-80
2021/11/19 00:06:44;;;;;;;17.08;6.72;;;;;;;;;;6197061;28;20057;-79
2021/11/19 00:09:45;;;;;;;13.40;6.30;;;;;;;;;;6227289;28;20053;-79
2021/11/19 00:12:47;;;;;;;13.20;6.07;;;;;;;;;;6226384;28;20128;-80
2021/11/19 00:15:49;;;;;;;16.45;6.80;;;;;;;;;;6211524;28;20140;-81
2021/11/19 00:18:51;;;;;;;11.18;5.18;;;;;;;;;;6220047;28;20053;-81
2021/11/19 00:21:56;;;;;;;12.57;6.20;;;;;;;;;;6218485;28;20049;-80
2021/11/19 00:24:58;;;;;;;14.80;6.15;;;;;;;;;;6203401;28;20124;-79
2021/11/19 00:28:01;;;;;;;13.88;5.90;;;;;;;;;;6178921;28;20066;-81
2021/11/19 00:31:03;;;;;;;15.20;6.97;;;;;;;;;;6167669;28;20110;-80
2021/11/19 00:34:05;;;;;;;13.80;7.20;;;;;;;;;;6173160;28;20039;-82
2021/11/19 00:37:08;;;;;;;17.95;6.47;;;;;;;;;;6201755;28;20076;-81
2021/11/19 00:40:59;;;;;;;15.20;6.55;;;;;;;;;;7104632;23;20033;-86
2021/11/19 00:44:02;;;;;;;11.75;6.45;;;;;;;;;;6187787;28;20052;-85
2021/11/19 00:47:08;;;;;;;15.55;6.07;;;;;;;;;;6207288;28;20045;-85
2021/11/19 00:50:12;;;;;;;14.07;6.53;;;;;;;;;;6195924;28;20668;-85
2021/11/19 00:53:14;;;;;;;15.60;5.90;;;;;;;;;;6197617;28;20050;-85
2021/11/19 00:56:19;;;;;;;14.05;6.80;;;;;;;;;;6174314;28;20058;-86
2021/11/19 00:59:21;;;;;;;11.35;6.07;;;;;;;;;;6159993;28;20062;-85
2021/11/19 01:02:25;;;;;;;10.65;5.70;;;;;;;;;;6182307;28;20058;-85
2021/11/19 01:05:33;;;;;;;10.45;5.40;;;;;;;;;;6173005;28;20043;-86
2021/11/19 01:08:34;;;;;;;12.20;5.57;;;;;;;;;;6178752;28;20039;-86
2021/11/19 01:11:38;;;;;;;9.65;5.45;;;;;;;;;;6156088;28;20136;-86
2021/11/19 01:15:06;;;;;;;;;;;;;;;;;;6176687;28;20066;-85
2021/11/19 01:18:39;;;;;;;9.65;5.47;;;;;;;;;;6131905;28;19919;-86
2021/11/19 01:21:47;;;;;;;9.85;5.07;;;;;;;;;;6153181;28;20043;-86
2021/11/19 01:24:49;;;;;;;9.30;5.32;;;;;;;;;;6184696;28;20106;-86
2021/11/19 01:27:51;;;;;;;11.35;5.85;;;;;;;;;;6187449;28;20116;-86
2021/11/19 01:31:07;;;;;;;9.02;5.13;;;;;;;;;;6195080;28;20042;-86
2021/11/19 01:34:10;;;;;;;8.23;4.25;;;;;;;;;;6192266;28;20039;-86
2021/11/19 01:37:36;;;;;;;10.30;4.60;;;;;;;;;;6189269;28;20109;-86
2021/11/19 01:40:58;;;;;;;9.30;5.43;;;;;;;;;;6194355;28;20046;-86
2021/11/19 01:44:19;;;;;;;11.45;5.38;;;;;;;;;;6198987;28;20495;-86
2021/11/19 01:47:23;;;;;;;12.20;5.82;;;;;;;;;;6197177;28;20514;-87
2021/11/19 01:50:27;;;;;;;;;;;;;;;;;;6198062;28;20049;-85
2021/11/19 01:53:31;;;;;;;14.88;5.68;;;;;;;;;;6181549;28;19952;-88
2021/11/19 01:56:37;;;;;;;9.77;5.22;;;;;;;;;;6179291;28;20077;-87
2021/11/19 02:00:07;;;;;;;11.73;5.97;;;;;;;;;;6218331;28;20093;-85
2021/11/19 02:03:20;;;;;;;9.27;5.20;;;;;;;;;;6202789;28;20041;-86
2021/11/19 02:06:29;;;;;;;8.38;4.95;;;;;;;;;;6199525;28;20053;-87
2021/11/19 02:09:49;;;;;;;9.05;5.60;;;;;;;;;;6175839;28;20061;-86
2021/11/19 02:13:00;;;;;;;10.85;5.45;;;;;;;;;;6190356;28;20042;-86
2021/11/19 02:16:14;;;;;;;9.82;4.85;;;;;;;;;;6193162;28;20046;-86
2021/11/19 02:19:36;;;;;;;10.13;5.20;;;;;;;;;;6193252;28;20050;-86
2021/11/19 02:22:44;;;;;;;11.48;5.30;;;;;;;;;;6200847;28;20454;-86
2021/11/19 02:25:52;;;;;;;11.38;5.45;;;;;;;;;;6215478;28;20057;-86
2021/11/19 02:28:55;;;;;;;8.88;4.15;;;;;;;;;;6186895;28;20034;-87
2021/11/19 02:32:05;;;;;;;11.03;4.40;;;;;;;;;;6186759;28;20049;-86
2021/11/19 02:35:54;;;;;;;12.00;5.43;;;;;;;;;;6203332;28;20470;-86
2021/11/19 02:39:08;;;;;;;8.23;4.40;;;;;;;;;;6180028;28;20050;-86
2021/11/19 02:42:35;;;;;;;9.43;4.72;;;;;;;;;;6197824;28;20061;-86
2021/11/19 02:45:44;;;;;;;10.50;4.22;;;;;;;;;;6135895;28;20043;-86
2021/11/19 02:48:46;;;;;;;7.82;4.30;;;;;;;;;;6162379;28;20046;-86
2021/11/19 02:51:52;;;;;;;10.20;4.85;;;;;;;;;;6152430;28;20040;-85
2021/11/19 02:55:08;;;;;;;9.15;4.57;;;;;;;;;;6151275;28;20035;-86
2021/11/19 02:58:20;;;;;;;8.88;5.10;;;;;;;;;;6159626;28;20046;-86
2021/11/19 03:01:38;;;;;;;8.68;4.97;;;;;;;;;;6189820;28;20510;-87
2021/11/19 03:04:51;;;;;;;8.95;4.53;;;;;;;;;;6152708;28;20083;-86
2021/11/19 03:07:53;;;;;;;9.45;4.40;;;;;;;;;;6166312;28;20615;-86
2021/11/19 03:10:56;;;;;;;6.95;3.65;;;;;;;;;;6151355;28;20039;-86
2021/11/19 03:13:58;;;;;;;7.97;4.80;;;;;;;;;;6146848;28;20050;-87
2021/11/19 03:17:01;;;;;;;10.32;4.95;;;;;;;;;;6154246;28;20134;-86
2021/11/19 03:20:07;;;;;;;9.18;4.68;;;;;;;;;;6169087;28;20035;-86
2021/11/19 03:23:10;;;;;;;9.80;4.80;;;;;;;;;;6155414;28;20094;-87
2021/11/19 03:26:13;;;;;;;9.20;5.10;;;;;;;;;;6157567;28;20177;-86
2021/11/19 03:29:15;;;;;;;9.60;5.13;;;;;;;;;;6167631;28;20121;-86
2021/11/19 03:32:22;;;;;;;7.07;4.28;;;;;;;;;;6158669;28;20074;-87
2021/11/19 03:35:25;;;;;;;8.07;4.82;;;;;;;;;;6158378;28;20505;-87
2021/11/19 03:38:30;;;;;;;8.32;4.55;;;;;;;;;;6159169;28;20043;-87
2021/11/19 03:41:36;;;;;;;10.07;4.90;;;;;;;;;;6155208;28;20436;-87
2021/11/19 03:44:44;;;;;;;11.45;5.25;;;;;;;;;;6164254;28;20055;-88
2021/11/19 03:47:48;;;;;;;9.98;4.53;;;;;;;;;;6175388;28;20058;-87
2021/11/19 03:50:53;;;;;;;12.27;5.00;;;;;;;;;;6177903;28;20051;-87
2021/11/19 03:53:56;;;;;;;10.82;5.85;;;;;;;;;;6187493;28;20054;-86
2021/11/19 03:56:59;;;;;;;9.93;4.80;;;;;;;;;;6181739;28;20059;-87
2021/11/19 04:00:05;;;;;;;9.07;4.57;;;;;;;;;;6189455;28;20043;-87
2021/11/19 04:03:15;;;;;;;9.27;5.27;;;;;;;;;;6208466;28;20406;-87
2021/11/19 04:06:21;;;;;;;8.70;4.45;;;;;;;;;;6194350;28;20527;-87
2021/11/19 04:09:23;;;;;;;8.68;4.47;;;;;;;;;;6200955;28;20042;-87
2021/11/19 04:12:25;;;;;;;8.77;4.47;;;;;;;;;;6187149;28;20563;-86
2021/11/19 04:15:33;;;;;;;8.80;4.80;;;;;;;;;;6186116;28;20038;-86
2021/11/19 04:18:36;;;;;;;7.13;4.45;;;;;;;;;;6183243;28;20495;-86
2021/11/19 04:21:38;;;;;;;6.38;3.22;;;;;;;;;;6181607;28;20038;-87
2021/11/19 04:24:45;;;;;;;7.90;4.18;;;;;;;;;;6187703;28;20097;-85
2021/11/19 04:27:48;;;;;;;8.80;4.57;;;;;;;;;;6179838;28;20063;-86
2021/11/19 04:31:09;;;;;;;7.65;4.35;;;;;;;;;;6188237;28;20438;-86
2021/11/19 04:34:14;;;;;;;8.48;3.97;;;;;;;;;;6185914;28;20141;-86
2021/11/19 04:37:15;;;;;;;;;;;;;;;;;;6190407;28;20074;-85
2021/11/19 04:40:24;;;;;;;10.25;4.60;;;;;;;;;;6195235;28;19929;-86
2021/11/19 04:43:27;;;;;;;7.72;4.03;;;;;;;;;;6186033;28;20042;-86
2021/11/19 04:46:30;;;;;;;8.57;4.63;;;;;;;;;;6192297;28;20077;-86
2021/11/19 04:49:34;;;;;;;9.77;4.65;;;;;;;;;;6193370;28;20117;-86
2021/11/19 04:52:38;;;;;;;9.55;4.50;;;;;;;;;;6176685;28;20034;-86
2021/11/19 04:55:40;;;;;;;8.85;4.63;;;;;;;;;;6194144;28;20037;-87
2021/11/19 04:58:43;;;;;;;7.85;4.68;;;;;;;;;;6203424;28;20045;-86
2021/11/19 05:01:52;;;;;;;8.48;3.80;;;;;;;;;;6202911;28;20066;-86
2021/11/19 05:05:13;;;;;;;6.78;3.83;;;;;;;;;;6193666;28;20042;-86
2021/11/19 05:08:15;;;;;;;9.50;4.78;;;;;;;;;;6212801;28;20042;-86
2021/11/19 05:11:23;;;;;;;9.10;4.70;;;;;;;;;;6189480;28;20081;-85
2021/11/19 05:14:25;;;;;;;9.77;4.22;;;;;;;;;;6198843;28;20104;-86
2021/11/19 05:17:28;;;;;;;7.35;3.85;;;;;;;;;;6196374;28;20041;-86
2021/11/19 05:20:32;;;;;;;10.10;4.88;;;;;;;;;;6191846;28;20136;-86
2021/11/19 05:23:34;;;;;;;10.70;5.07;;;;;;;;;;6200133;28;20080;-86
2021/11/19 05:26:39;;;;;;;8.63;5.10;;;;;;;;;;6207886;28;20105;-86
2021/11/19 05:29:40;;;;;;;7.35;3.95;;;;;;;;;;6198541;28;20042;-86
2021/11/19 05:32:44;;;;;;;8.45;4.78;;;;;;;;;;6201571;28;20533;-86
2021/11/19 05:35:47;;;;;;;7.10;4.27;;;;;;;;;;6187385;28;20079;-87
2021/11/19 05:38:48;;;;;;;9.55;4.57;;;;;;;;;;6227522;28;20097;-86
2021/11/19 05:41:54;;;;;;;7.55;3.80;;;;;;;;;;6206302;28;20077;-87
2021/11/19 05:44:57;;;;;;;9.18;4.45;;;;;;;;;;6193679;28;20035;-87
2021/11/19 05:48:25;;;;;;;7.28;3.67;;;;;;;;;;6194961;28;20085;-87
2021/11/19 05:51:28;;;;;;;6.65;3.97;;;;;;;;;;6225654;28;20042;-87
2021/11/19 05:54:33;;;;;;;7.38;3.88;;;;;;;;;;6202898;28;20065;-87
2021/11/19 05:57:35;;;;;;;8.18;3.92;;;;;;;;;;6222681;28;20041;-87
2021/11/19 06:00:46;;;;;;;6.18;3.72;;;;;;;;;;6210563;28;20041;-87
2021/11/19 06:03:56;;;;;;;6.10;2.92;;;;;;;;;;6173230;28;20050;-88
2021/11/19 06:07:16;;;;;;;4.75;3.05;;;;;;;;;;6223064;28;20045;-87
2021/11/19 06:10:29;;;;;;;6.35;3.70;;;;;;;;;;6193758;28;20045;-87
2021/11/19 06:13:38;;;;;;;4.40;2.70;;;;;;;;;;6208056;28;20048;-86
2021/11/19 06:16:47;;;;;;;6.72;3.42;;;;;;;;;;6203963;28;20409;-87
2021/11/19 06:19:55;;;;;;;8.65;3.35;;;;;;;;;;6197703;28;20046;-87
2021/11/19 06:23:03;;;;;;;5.90;3.03;;;;;;;;;;6195493;28;20049;-88
2021/11/19 06:26:11;;;;;;;7.28;3.60;;;;;;;;;;6184870;28;20046;-87
2021/11/19 06:29:19;;;;;;;6.50;4.10;;;;;;;;;;6187540;28;20049;-87
2021/11/19 06:32:21;;;;;;;6.70;3.30;;;;;;;;;;6184815;28;20046;-88
2021/11/19 06:35:23;;;;;;;8.25;4.30;;;;;;;;;;6184933;28;20101;-87
2021/11/19 06:38:25;;;;;;;7.72;4.18;;;;;;;;;;6213394;28;20353;-86
2021/11/19 06:41:33;;;;;;;8.77;4.50;;;;;;;;;;6170301;28;20057;-87
2021/11/19 06:45:07;;;;;;;10.45;5.03;;;;;;;;;;6192457;28;20101;-85
2021/11/19 06:48:33;;;;;;;8.02;4.15;;;;;;;;;;6180710;28;20120;-87
2021/11/19 06:52:00;;;;;;;9.63;4.32;;;;;;;;;;6195885;28;20547;-85
2021/11/19 06:55:24;;;;;;;10.95;4.25;;;;;;;;;;6221977;28;20489;-87
2021/11/19 06:58:46;;;;;;;8.73;4.00;;;;;;;;;;6198280;28;20057;-85
2021/11/19 07:01:48;;;;;;;8.73;4.25;;;;;;;;;;6199064;28;20035;-85
2021/11/19 07:04:50;;;;;;;8.30;4.38;;;;;;;;;;6210219;28;20530;-86
2021/11/19 07:07:53;;;;;;;9.35;4.70;;;;;;;;;;6177954;28;20054;-87
2021/11/19 07:10:57;;;;;;;12.27;4.70;;;;;;;;;;6204947;28;20158;-87
2021/11/19 07:13:59;;;;;;;9.10;4.63;;;;;;;;;;6190878;28;20454;-86
2021/11/19 07:17:04;;;;;;;8.27;4.63;;;;;;;;;;6196845;28;20181;-86
2021/11/19 07:20:11;;;;;;;7.57;4.72;;;;;;;;;;6183065;28;20056;-86
2021/11/19 07:23:13;;;;;;;9.13;4.63;;;;;;;;;;6194500;28;20084;-86
2021/11/19 07:26:16;;;;;;;10.38;4.47;;;;;;;;;;6187070;28;20128;-86
2021/11/19 07:29:18;;;;;;;8.17;3.60;;;;;;;;;;6213229;28;20049;-87
2021/11/19 07:32:32;;;;;;;10.00;4.57;;;;;;;;;;6221961;28;20460;-86
2021/11/19 07:35:53;;;;;;;8.65;4.20;;;;;;;;;;6187592;28;20161;-86
2021/11/19 07:39:11;;;;;;;8.30;4.45;;;;;;;;;;6195779;28;20052;-87
2021/11/19 07:42:19;;;;;;;8.65;4.85;;;;;;;;;;6206739;28;20554;-86
2021/11/19 07:45:21;;;;;;;9.07;4.38;;;;;;;;;;6210761;28;20049;-87
2021/11/19 07:48:41;;;;;;;9.07;4.65;;;;;;;;;;6196039;28;20045;-87
2021/11/19 07:51:46;;;;;;;13.43;5.28;;;;;;;;;;6200710;28;20119;-86
2021/11/19 07:54:49;;;;;;;12.82;5.63;;;;;;;;;;6216276;28;20124;-86
2021/11/19 07:57:53;;;;;;;9.68;4.93;;;;;;;;;;6195924;28;20499;-86
2021/11/19 08:00:57;;;;;;;9.98;4.93;;;;;;;;;;6195450;28;20047;-86
2021/11/19 08:03:59;;;;;;;13.02;5.28;;;;;;;;;;6193243;28;20057;-87
2021/11/19 08:07:02;;;;;;;10.13;4.90;;;;;;;;;;6187288;28;20069;-85
2021/11/19 08:10:22;;;;;;;11.05;5.00;;;;;;;;;;6181185;28;20053;-88
2021/11/19 08:13:25;;;;;;;10.95;5.05;;;;;;;;;;6176244;28;20418;-85
2021/11/19 08:16:43;;;;;;;11.45;4.65;;;;;;;;;;6211312;28;20046;-87
2021/11/19 08:19:52;;;;;;;11.45;5.63;;;;;;;;;;6197874;28;20027;-87
2021/11/19 08:22:55;;;;;;;11.02;5.00;;;;;;;;;;6222947;28;20048;-86
2021/11/19 08:25:57;;;;;;;13.35;6.47;;;;;;;;;;6185027;28;20081;-89
2021/11/19 08:29:07;;;;;;;12.50;5.78;;;;;;;;;;6220016;28;20050;-86
2021/11/19 08:32:09;;;;;;;9.82;5.78;;;;;;;;;;6181989;28;20046;-87
2021/11/19 08:35:21;;;;;;;11.97;5.30;;;;;;;;;;6187961;28;20061;-90
2021/11/19 08:38:31;;;;;;;10.50;4.47;;;;;;;;;;6194816;28;20049;-88
2021/11/19 08:41:33;;;;;;;11.52;5.70;;;;;;;;;;6201419;28;20045;-86
2021/11/19 08:44:45;;;;;;;11.43;4.95;;;;;;;;;;6197100;28;20097;-87
2021/11/19 08:48:20;;;;;;;9.93;4.88;;;;;;;;;;6196877;28;20047;-86
2021/11/19 08:51:24;;;;;;;11.57;4.85;;;;;;;;;;6231302;28;20056;-86
2021/11/19 08:54:27;;;;;;;9.35;4.32;;;;;;;;;;6212693;28;20048;-85
2021/11/19 08:57:28;;;;;;;9.65;5.03;;;;;;;;;;6163827;28;20138;-85
2021/11/19 09:00:35;;;;;;;9.65;4.80;;;;;;;;;;6213473;28;20060;-85
2021/11/19 09:03:37;;;;;;;9.70;5.03;;;;;;;;;;6233333;28;20491;-85
2021/11/19 09:06:40;;;;;;;11.30;5.03;;;;;;;;;;6223124;28;20189;-84
2021/11/19 09:09:44;;;;;;;12.90;6.18;;;;;;;;;;6224937;28;20041;-85
2021/11/19 09:12:48;;;;;;;12.15;4.70;;;;;;;;;;6207535;28;20073;-87
2021/11/19 09:15:50;;;;;;;10.93;5.38;;;;;;;;;;6227059;28;20038;-86
2021/11/19 09:19:15;;;;;;;9.75;4.68;;;;;;;;;;6227799;28;20129;-86
2021/11/19 09:22:31;;;;;;;11.63;4.68;;;;;;;;;;6219152;28;20040;-88
2021/11/19 09:25:34;;;;;;;11.45;4.75;;;;;;;;;;6216875;28;20046;-87
2021/11/19 09:28:39;;;;;;;9.75;4.55;;;;;;;;;;6188340;28;20048;-87
2021/11/19 09:31:42;;;;;;;8.48;4.22;;;;;;;;;;6194593;28;20133;-86
2021/11/19 09:34:47;;;;;;;8.25;4.65;;;;;;;;;;6195640;28;20517;-87
2021/11/19 09:37:51;;;;;;;8.68;4.45;;;;;;;;;;6211764;28;20088;-85
2021/11/19 09:41:46;;;;;;;10.35;4.75;;;;;;;;;;6218315;28;20152;-86
2021/11/19 09:45:03;;;;;;;11.70;4.68;;;;;;;;;;6188359;28;20050;-86
2021/11/19 09:48:29;;;;;;;8.93;4.78;;;;;;;;;;6228840;28;20114;-87
2021/11/19 09:52:44;;;;;;;9.90;4.72;;;;;;;;;;6189425;28;20048;-86
2021/11/19 09:56:13;;;;;;;8.57;4.45;;;;;;;;;;6202743;28;20062;-86
2021/11/19 09:59:44;;;;;;;8.40;4.20;;;;;;;;;;6185053;28;20068;-86
2021/11/19 10:02:56;;;;;;;9.05;4.43;;;;;;;;;;6218278;28;20054;-87
2021/11/19 10:06:13;;;;;;;7.35;3.60;;;;;;;;;;6196149;28;20046;-86
2021/11/19 10:09:20;;;;;;;6.30;3.70;;;;;;;;;;6215168;28;20046;-86
2021/11/19 10:12:32;;;;;;;5.97;3.45;;;;;;;;;;6216617;28;20041;-86
2021/11/19 10:15:57;;;;;;;5.90;3.35;;;;;;;;;;6219895;28;20042;-85
2021/11/19 10:19:08;;;;;;;6.78;3.50;;;;;;;;;;6188197;28;20117;-86
2021/11/19 10:22:22;;;;;;;5.72;3.08;;;;;;;;;;6211717;28;20125;-86
2021/11/19 10:25:52;;;;;;;5.95;3.20;;;;;;;;;;6202810;28;20068;-85
2021/11/19 10:28:59;;;;;;;5.28;3.13;;;;;;;;;;6212655;28;20050;-86
2021/11/19 10:32:03;;;;;;;4.72;3.40;;;;;;;;;;6221406;28;20499;-85
2021/11/19 10:35:28;;;;;;;3.35;2.20;;;;;;;;;;6220742;28;20042;-86
2021/11/19 10:38:55;;;;;;;3.53;2.40;;;;;;;;;;6209609;28;20072;-86
2021/11/19 10:42:16;;;;;;;6.28;3.90;;;;;;;;;;6213664;28;20046;-86
2021/11/19 10:45:34;;;;;;;6.95;3.67;;;;;;;;;;6217572;28;20091;-88
2021/11/19 10:48:36;;;;;;;5.90;3.28;;;;;;;;;;6219143;28;20061;-86
2021/11/19 10:52:15;;;;;;;9.25;4.78;;;;;;;;;;6201640;28;20525;-86
2021/11/19 10:55:32;;;;;;;5.63;3.30;;;;;;;;;;6219364;28;20049;-86
2021/11/19 10:58:50;;;;;;;7.38;3.90;;;;;;;;;;6210710;28;20045;-87
2021/11/19 11:02:24;;;;;;;4.15;2.20;;;;;;;;;;6219232;28;20422;-86
2021/11/19 11:05:25;;;;;;;;;;;;;;;;;;6219954;28;20046;-86
2021/11/19 11:08:30;;;;;;;4.05;2.20;;;;;;;;;;6204068;28;19954;-86
2021/11/19 11:11:39;;;;;;;4.25;2.80;;;;;;;;;;6218424;28;20137;-87
2021/11/19 11:14:44;;;;;;;2.83;2.22;;;;;;;;;;6215011;28;20138;-87
2021/11/19 11:17:58;;;;;;;4.30;3.38;;;;;;;;;;6206790;28;20545;-87
2021/11/19 11:21:31;;;;;;;4.20;2.63;;;;;;;;;;6198712;28;20503;-86
2021/11/19 11:24:51;;;;;;;2.97;1.80;;;;;;;;;;6182530;28;20077;-86
2021/11/19 11:28:14;;;;;;;4.35;2.28;;;;;;;;;;6210222;28;20048;-85
2021/11/19 11:31:53;;;;;;;2.13;1.38;;;;;;;;;;6201628;28;20079;-87
2021/11/19 11:35:14;;;;;;;3.17;2.35;;;;;;;;;;6219496;28;20582;-86
2021/11/19 11:38:15;;;;;;;3.17;1.48;;;;;;;;;;6211005;28;20590;-87
2021/11/19 11:41:26;;;;;;;3.88;1.80;;;;;;;;;;6200983;28;20120;-86
2021/11/19 11:44:40;;;;;;;1.60;1.00;;;;;;;;;;6203312;28;20130;-86
2021/11/19 11:47:50;;;;;;;;;;;;;;;;;;6213828;28;20052;-87
2021/11/19 11:51:03;;;;;;;2.08;1.25;;;;;;;;;;6218664;28;19932;-86
2021/11/19 11:54:10;;;;;;;2.65;1.45;;;;;;;;;;6186145;28;20113;-85
2021/11/19 11:57:23;;;;;;;2.63;1.50;;;;;;;;;;6180237;28;20057;-86
2021/11/19 12:00:33;;;;;;;1.08;0.98;;;;;;;;;;6203036;28;20430;-87
2021/11/19 12:03:45;;;;;;;1.77;1.13;;;;;;;;;;6196075;28;20129;-87
2021/11/19 12:07:01;;;;;;;1.80;1.00;;;;;;;;;;6200136;28;20419;-85
2021/11/19 12:10:37;;;;;;;1.30;0.90;;;;;;;;;;6222224;28;20046;-85
2021/11/19 12:13:43;;;;;;;1.88;0.90;;;;;;;;;;6216494;28;20091;-86
2021/11/19 12:17:17;;;;;;;1.60;0.85;;;;;;;;;;6224550;28;20046;-85
2021/11/19 12:20:35;;;;;;;3.00;1.08;;;;;;;;;;6210946;28;20064;-85
2021/11/19 12:23:54;;;;;;;1.40;1.00;;;;;;;;;;6212049;28;20046;-86
2021/11/19 12:27:34;;;;;;;0.98;0.70;;;;;;;;;;6216782;28;20137;-87
2021/11/19 12:30:57;;;;;;;2.42;1.10;;;;;;;;;;6168947;28;20053;-86
2021/11/19 12:34:08;;;;;;;0.90;0.70;;;;;;;;;;6166701;28;20101;-85
2021/11/19 12:37:18;;;;;;;3.55;0.90;;;;;;;;;;6178895;28;20107;-85
2021/11/19 12:40:28;;;;;;;2.40;1.40;;;;;;;;;;6199925;28;20052;-86
2021/11/19 12:43:32;;;;;;;2.78;1.58;;;;;;;;;;6197787;28;20329;-86
2021/11/19 12:47:12;;;;;;;2.25;1.60;;;;;;;;;;6207571;28;20050;-87
2021/11/19 12:50:36;;;;;;;1.13;0.70;;;;;;;;;;6220785;28;20049;-86
2021/11/19 12:53:52;;;;;;;2.72;1.10;;;;;;;;;;6217878;28;20041;-85
2021/11/19 12:57:14;;;;;;;2.50;1.30;;;;;;;;;;6200031;28;20716;-86
2021/11/19 13:00:27;;;;;;;0.98;0.70;;;;;;;;;;6225805;28;20194;-86
2021/11/19 13:03:32;;;;;;;0.95;0.80;;;;;;;;;;6224252;28;20054;-87
2021/11/19 13:06:55;;;;;;;1.40;0.95;;;;;;;;;;6181403;28;20046;-85
2021/11/19 13:10:03;;;;;;;1.70;1.10;;;;;;;;;;6204584;28;20423;-85
2021/11/19 13:13:27;;;;;;;1.70;1.00;;;;;;;;;;6195017;28;20038;-86
2021/11/19 13:16:33;;;;;;;1.00;0.70;;;;;;;;;;6152135;28;20100;-87
2021/11/19 13:19:49;;;;;;;1.63;0.70;;;;;;;;;;6169831;28;20412;-86
2021/11/19 13:22:51;;;;;;;1.55;0.80;;;;;;;;;;6194308;28;20046;-85
2021/11/19 13:25:52;;;;;;;1.42;0.90;;;;;;;;;;6204980;28;20128;-86
2021/11/19 13:28:58;;;;;;;2.17;0.80;;;;;;;;;;6196066;28;20117;-86
2021/11/19 13:32:18;;;;;;;0.98;0.68;;;;;;;;;;6185256;28;20093;-87
2021/11/19 13:35:29;;;;;;;1.55;1.10;;;;;;;;;;6192021;28;20125;-86
2021/11/19 13:39:08;;;;;;;1.00;0.77;;;;;;;;;;6194606;28;20048;-86
2021/11/19 13:42:11;;;;;;;2.13;1.02;;;;;;;;;;6198866;28;20042;-85
2021/11/19 13:45:32;;;;;;;1.67;1.05;;;;;;;;;;6185921;28;20066;-85
2021/11/19 13:48:36;;;;;;;2.85;1.63;;;;;;;;;;6196004;28;20189;-86
2021/11/19 13:51:49;;;;;;;2.53;1.58;;;;;;;;;;6169245;28;20050;-85
2021/11/19 13:55:14;;;;;;;2.97;1.70;;;;;;;;;;6211727;28;20057;-86
2021/11/19 13:58:47;;;;;;;3.33;2.22;;;;;;;;;;6186898;28;20412;-86
2021/11/19 14:02:03;;;;;;;4.20;2.00;;;;;;;;;;6178557;28;20054;-85
2021/11/19 14:05:17;;;;;;;4.40;2.58;;;;;;;;;;6181862;28;20176;-85
2021/11/19 14:08:32;;;;;;;7.32;4.07;;;;;;;;;;6235154;28;20038;-86
2021/11/19 14:11:37;;;;;;;4.40;2.47;;;;;;;;;;6227820;28;20125;-87
2021/11/19 14:14:40;;;;;;;5.38;2.88;;;;;;;;;;6187942;28;20126;-86
2021/11/19 14:17:42;;;;;;;4.70;2.90;;;;;;;;;;6200934;28;20042;-84
2021/11/19 14:24:48;;;;;;;5.95;3.05;;;;;;;;;;6214682;28;20110;-86
2021/11/19 14:27:56;;;;;;;6.80;3.60;;;;;;;;;;6203614;28;20072;-85
2021/11/19 14:31:04;;;;;;;8.25;3.85;;;;;;;;;;6192915;28;20606;-86
2021/11/19 14:34:11;;;;;;;6.78;3.88;;;;;;;;;;6213857;28;20042;-86
2021/11/19 14:37:39;;;;;;;6.13;3.33;;;;;;;;;;6222303;28;20041;-85
2021/11/19 14:40:51;;;;;;;6.07;3.85;;;;;;;;;;6195586;28;20046;-87
2021/11/19 14:44:02;;;;;;;5.70;3.97;;;;;;;;;;6212081;28;20049;-85
2021/11/19 14:47:13;;;;;;;5.57;3.78;;;;;;;;;;6135672;28;20052;-87
2021/11/19 14:54:26;;;;;;;9.07;3.95;;;;;;;;;;6171496;28;20060;-86
2021/11/19 14:57:51;;;;;;;5.03;3.42;;;;;;;;;;6209005;28;20048;-86
2021/11/19 15:00:57;;;;;;;5.93;3.78;;;;;;;;;;6187415;28;20104;-87
2021/11/19 15:04:17;;;;;;;6.35;3.78;;;;;;;;;;6194678;28;20180;-85
2021/11/19 15:07:20;;;;;;;7.22;4.00;;;;;;;;;;6168517;28;20057;-86
2021/11/19 15:10:32;;;;;;;6.78;3.85;;;;;;;;;;6181367;28;20078;-87
2021/11/19 15:13:36;;;;;;;6.18;3.53;;;;;;;;;;6201792;28;20053;-87
2021/11/19 15:16:59;;;;;;;6.53;4.38;;;;;;;;;;6214580;28;20046;-86
2021/11/19 15:20:07;;;;;;;;;;;;;;;;;;6221283;28;20034;-86
2021/11/19 15:23:34;;;;;;;8.68;4.55;;;;;;;;;;6189323;28;20425;-86
2021/11/19 15:26:47;;;;;;;8.15;4.50;;;;;;;;;;6214544;28;20476;-86
2021/11/19 15:29:48;;;;;;;8.40;4.90;;;;;;;;;;6217851;28;20089;-86
2021/11/19 15:33:07;;;;;;;7.38;4.75;;;;;;;;;;6170716;28;20055;-85
2021/11/19 15:36:19;;;;;;;11.32;5.72;;;;;;;;;;6219727;28;20061;-85
2021/11/19 15:39:21;;;;;;;7.60;4.95;;;;;;;;;;6236566;28;20052;-85
2021/11/19 15:42:23;;;;;;;9.25;5.10;;;;;;;;;;6223420;28;20042;-86
2021/11/19 15:45:28;;;;;;;7.72;4.97;;;;;;;;;;6202737;28;20100;-86
2021/11/19 15:48:31;;;;;;;8.55;5.43;;;;;;;;;;6207847;28;20038;-87
2021/11/19 15:51:36;;;;;;;9.10;5.10;;;;;;;;;;6214451;28;20908;-87
2021/11/19 15:55:10;;;;;;;9.48;5.85;;;;;;;;;;6209540;28;20132;-87
2021/11/19 15:58:42;;;;;;;12.50;6.72;;;;;;;;;;6199386;28;20522;-87
2021/11/19 16:02:04;;;;;;;10.10;5.63;;;;;;;;;;6161169;28;20052;-87
2021/11/19 16:05:13;;;;;;;11.90;5.80;;;;;;;;;;6197998;28;20154;-86
2021/11/19 16:08:31;;;;;;;11.38;6.47;;;;;;;;;;6219485;28;20418;-87
2021/11/19 16:11:42;;;;;;;9.77;6.03;;;;;;;;;;6211794;28;20054;-87
2021/11/19 16:14:43;;;;;;;10.85;6.43;;;;;;;;;;6213262;28;20042;-87
2021/11/19 16:17:45;;;;;;;10.98;6.03;;;;;;;;;;6194333;28;20049;-87
2021/11/19 16:20:48;;;;;;;11.70;7.00;;;;;;;;;;6189398;28;20150;-89
2021/11/19 16:23:51;;;;;;;12.43;7.05;;;;;;;;;;6201972;28;20050;-87
2021/11/19 16:26:57;;;;;;;11.98;6.95;;;;;;;;;;6201377;28;20046;-88
2021/11/19 16:30:06;;;;;;;12.25;7.47;;;;;;;;;;6199822;28;20124;-86
2021/11/19 16:33:08;;;;;;;14.80;7.35;;;;;;;;;;6207144;28;20619;-86
2021/11/19 16:36:10;;;;;;;12.70;6.90;;;;;;;;;;6208319;28;20076;-87
2021/11/19 16:39:16;;;;;;;14.18;7.18;;;;;;;;;;6221473;28;20052;-87
2021/11/19 16:42:18;;;;;;;12.98;7.13;;;;;;;;;;6213234;28;20053;-86
2021/11/19 16:45:26;;;;;;;12.48;7.05;;;;;;;;;;6220565;28;20045;-87
2021/11/19 16:48:32;;;;;;;14.52;8.30;;;;;;;;;;6204035;28;20045;-86
2021/11/19 16:51:42;;;;;;;15.90;8.27;;;;;;;;;;6194649;28;20046;-87
2021/11/19 16:54:49;;;;;;;13.23;7.32;;;;;;;;;;6205508;28;20080;-87
2021/11/19 16:57:52;;;;;;;12.45;7.30;;;;;;;;;;6216038;28;20038;-87
2021/11/19 17:01:03;;;;;;;12.73;7.50;;;;;;;;;;6201753;28;20415;-87
2021/11/19 17:04:05;;;;;;;12.25;7.20;;;;;;;;;;6195445;28;20046;-86
2021/11/19 17:07:08;;;;;;;14.63;7.30;;;;;;;;;;6219658;28;20040;-87
2021/11/19 17:10:11;;;;;;;13.70;7.07;;;;;;;;;;6211736;28;20052;-87
2021/11/19 17:13:13;;;;;;;13.70;7.03;;;;;;;;;;6209920;28;20038;-86
2021/11/19 17:16:17;;;;;;;13.80;6.75;;;;;;;;;;6193686;28;20480;-87
2021/11/19 17:19:19;;;;;;;15.35;7.47;;;;;;;;;;6197568;28;20050;-86
2021/11/19 17:22:21;;;;;;;16.30;8.20;;;;;;;;;;6201712;28;20046;-87
2021/11/19 17:25:25;;;;;;;13.05;6.63;;;;;;;;;;6194578;28;20515;-87
2021/11/19 17:28:30;;;;;;;12.13;7.32;;;;;;;;;;6191541;28;20518;-87
2021/11/19 17:31:35;;;;;;;14.32;7.13;;;;;;;;;;6198438;28;20092;-87
2021/11/19 17:34:37;;;;;;;13.73;7.82;;;;;;;;;;6197102;28;20423;-87
2021/11/19 17:37:39;;;;;;;15.07;8.13;;;;;;;;;;6212900;28;20052;-87
2021/11/19 17:40:46;;;;;;;15.55;7.78;;;;;;;;;;6205111;28;20046;-87
2021/11/19 17:43:48;;;;;;;14.32;8.40;;;;;;;;;;6195212;28;20475;-87
2021/11/19 17:46:53;;;;;;;15.98;8.35;;;;;;;;;;6223235;28;20050;-87
2021/11/19 17:50:00;;;;;;;16.33;9.13;;;;;;;;;;6206231;28;20049;-87
2021/11/19 17:53:02;;;;;;;17.67;9.40;;;;;;;;;;6199456;28;20042;-87
2021/11/19 17:56:05;;;;;;;18.95;9.43;;;;;;;;;;6186264;28;20038;-87
2021/11/19 17:59:10;;;;;;;20.35;9.45;;;;;;;;;;6214684;28;20048;-87
2021/11/19 18:02:13;;;;;;;19.65;10.00;;;;;;;;;;6205678;28;20046;-88
2021/11/19 18:05:17;;;;;;;16.73;9.13;;;;;;;;;;6221374;28;20434;-87
2021/11/19 18:08:19;;;;;;;19.77;10.25;;;;;;;;;;6213299;28;20046;-87
2021/11/19 18:11:43;;;;;;;19.70;9.68;;;;;;;;;;6221749;28;20052;-87
2021/11/19 18:14:46;;;;;;;18.75;9.43;;;;;;;;;;6208106;28;20069;-87
2021/11/19 18:17:51;;;;;;;20.20;10.10;;;;;;;;;;6199649;28;20038;-87
2021/11/19 18:21:00;;;;;;;21.23;9.82;;;;;;;;;;6207382;28;20052;-87
2021/11/19 18:24:03;;;;;;;21.20;10.90;;;;;;;;;;6203582;28;20070;-87
2021/11/19 18:27:06;;;;;;;19.02;10.30;;;;;;;;;;6201133;28;20127;-87
2021/11/19 18:30:11;;;;;;;;;;;;;;;;;;6202108;28;20038;-87
2021/11/19 18:33:14;;;;;;;19.38;10.32;;;;;;;;;;6221084;28;19956;-87
2021/11/19 18:36:16;;;;;;;22.45;11.70;;;;;;;;;;6187268;28;20080;-87
2021/11/19 18:39:25;;;;;;;23.58;11.80;;;;;;;;;;6200006;28;20511;-87
2021/11/19 18:42:32;;;;;;;21.83;11.32;;;;;;;;;;6201411;28;20083;-87
2021/11/19 18:45:35;;;;;;;24.48;12.80;;;;;;;;;;6219515;28;20042;-87
2021/11/19 18:48:37;;;;;;;23.15;11.38;;;;;;;;;;6183361;28;20050;-87
2021/11/19 18:51:44;;;;;;;27.27;12.35;;;;;;;;;;6201098;28;20092;-87
2021/11/19 18:54:47;;;;;;;25.27;13.02;;;;;;;;;;6203150;28;20046;-87
2021/11/19 18:57:49;;;;;;;24.38;11.88;;;;;;;;;;6189349;28;20057;-86
2021/11/19 19:00:58;;;;;;;24.83;11.45;;;;;;;;;;6180403;28;20056;-86
2021/11/19 19:04:00;;;;;;;26.58;13.55;;;;;;;;;;6194995;28;20046;-86